sensor_id;sensor_type;location;lat;lon;timestamp;P1;durP1;ratioP1;P2;durP2;ratioP2
71475;SDS011;59286;59.274;17.974;2023-04-24T00:00:19;10.93;;;7.35;;
71475;SDS011;59286;59.274;17.974;2023-04-24T00:02:45;9.75;;;6.47;;
71475;SDS011;59286;59.274;17.974;2023-04-24T00:05:14;11.38;;;6.28;;
71475;SDS011;59286;59.274;17.974;2023-04-24T00:07:40;13.88;;;7.47;;
71475;SDS011;59286;59.274;17.974;2023-04-24T00:10:07;9.70;;;6.63;;
71475;SDS011;59286;59.274;17.974;2023-04-24T00:12:33;10.00;;;6.57;;
71475;SDS011;59286;59.274;17.974;2023-04-24T00:14:58;11.20;;;6.47;;
71475;SDS011;59286;59.274;17.974;2023-04-24T00:17:24;9.75;;;6.53;;
71475;SDS011;59286;59.274;17.974;2023-04-24T00:19:49;17.30;;;9.20;;
71475;SDS011;59286;59.274;17.974;2023-04-24T00:22:16;14.10;;;7.38;;
71475;SDS011;59286;59.274;17.974;2023-04-24T00:24:42;11.57;;;7.50;;
71475;SDS011;59286;59.274;17.974;2023-04-24T00:27:08;10.27;;;6.68;;
71475;SDS011;59286;59.274;17.974;2023-04-24T00:29:33;10.27;;;7.53;;
71475;SDS011;59286;59.274;17.974;2023-04-24T00:31:59;12.18;;;7.78;;
71475;SDS011;59286;59.274;17.974;2023-04-24T00:34:24;14.07;;;7.53;;
71475;SDS011;59286;59.274;17.974;2023-04-24T00:36:50;10.73;;;6.88;;
71475;SDS011;59286;59.274;17.974;2023-04-24T00:39:18;12.73;;;7.13;;
71475;SDS011;59286;59.274;17.974;2023-04-24T00:41:44;14.07;;;7.43;;
71475;SDS011;59286;59.274;17.974;2023-04-24T00:44:10;13.13;;;6.93;;
71475;SDS011;59286;59.274;17.974;2023-04-24T00:46:35;11.75;;;7.35;;
71475;SDS011;59286;59.274;17.974;2023-04-24T00:49:01;12.68;;;6.53;;
71475;SDS011;59286;59.274;17.974;2023-04-24T00:51:27;12.23;;;6.18;;
71475;SDS011;59286;59.274;17.974;2023-04-24T00:53:52;16.52;;;7.22;;
71475;SDS011;59286;59.274;17.974;2023-04-24T00:56:18;13.90;;;7.22;;
71475;SDS011;59286;59.274;17.974;2023-04-24T00:58:43;12.60;;;6.60;;
71475;SDS011;59286;59.274;17.974;2023-04-24T01:01:09;18.75;;;7.90;;
71475;SDS011;59286;59.274;17.974;2023-04-24T01:03:37;16.38;;;7.82;;
71475;SDS011;59286;59.274;17.974;2023-04-24T01:06:03;17.80;;;7.45;;
71475;SDS011;59286;59.274;17.974;2023-04-24T01:08:30;16.85;;;7.60;;
71475;SDS011;59286;59.274;17.974;2023-04-24T01:10:56;12.63;;;6.68;;
71475;SDS011;59286;59.274;17.974;2023-04-24T01:13:22;15.98;;;6.90;;
71475;SDS011;59286;59.274;17.974;2023-04-24T01:15:48;18.50;;;7.38;;
71475;SDS011;59286;59.274;17.974;2023-04-24T01:18:14;16.83;;;8.50;;
71475;SDS011;59286;59.274;17.974;2023-04-24T01:20:40;14.73;;;7.05;;
71475;SDS011;59286;59.274;17.974;2023-04-24T01:23:07;12.75;;;6.05;;
71475;SDS011;59286;59.274;17.974;2023-04-24T01:25:32;13.77;;;5.15;;
71475;SDS011;59286;59.274;17.974;2023-04-24T01:27:58;12.70;;;6.55;;
71475;SDS011;59286;59.274;17.974;2023-04-24T01:30:24;13.43;;;5.63;;
71475;SDS011;59286;59.274;17.974;2023-04-24T01:32:49;15.05;;;5.68;;
71475;SDS011;59286;59.274;17.974;2023-04-24T01:35:15;20.13;;;6.43;;
71475;SDS011;59286;59.274;17.974;2023-04-24T01:37:41;14.75;;;6.07;;
71475;SDS011;59286;59.274;17.974;2023-04-24T01:40:06;14.27;;;6.60;;
71475;SDS011;59286;59.274;17.974;2023-04-24T01:42:32;17.63;;;5.85;;
71475;SDS011;59286;59.274;17.974;2023-04-24T01:44:59;24.33;;;6.05;;
71475;SDS011;59286;59.274;17.974;2023-04-24T01:47:24;19.60;;;6.25;;
71475;SDS011;59286;59.274;17.974;2023-04-24T01:49:50;13.20;;;5.68;;
71475;SDS011;59286;59.274;17.974;2023-04-24T01:52:16;23.60;;;5.57;;
71475;SDS011;59286;59.274;17.974;2023-04-24T01:54:43;18.25;;;6.45;;
71475;SDS011;59286;59.274;17.974;2023-04-24T01:57:09;26.45;;;6.75;;
71475;SDS011;59286;59.274;17.974;2023-04-24T01:59:34;31.20;;;6.50;;
71475;SDS011;59286;59.274;17.974;2023-04-24T02:02:01;16.70;;;5.72;;
71475;SDS011;59286;59.274;17.974;2023-04-24T02:04:27;17.33;;;5.85;;
71475;SDS011;59286;59.274;17.974;2023-04-24T02:06:52;22.83;;;6.15;;
71475;SDS011;59286;59.274;17.974;2023-04-24T02:09:18;21.15;;;6.38;;
71475;SDS011;59286;59.274;17.974;2023-04-24T02:11:43;17.40;;;5.80;;
71475;SDS011;59286;59.274;17.974;2023-04-24T02:14:08;17.58;;;6.18;;
71475;SDS011;59286;59.274;17.974;2023-04-24T02:16:34;18.17;;;5.75;;
71475;SDS011;59286;59.274;17.974;2023-04-24T02:19:00;34.67;;;6.60;;
71475;SDS011;59286;59.274;17.974;2023-04-24T02:21:26;15.10;;;5.65;;
71475;SDS011;59286;59.274;17.974;2023-04-24T02:23:52;16.27;;;6.20;;
71475;SDS011;59286;59.274;17.974;2023-04-24T02:26:18;22.45;;;6.43;;
71475;SDS011;59286;59.274;17.974;2023-04-24T02:28:43;16.20;;;6.53;;
71475;SDS011;59286;59.274;17.974;2023-04-24T02:31:09;26.58;;;7.38;;
71475;SDS011;59286;59.274;17.974;2023-04-24T02:33:34;17.60;;;6.63;;
71475;SDS011;59286;59.274;17.974;2023-04-24T02:36:00;23.63;;;6.07;;
71475;SDS011;59286;59.274;17.974;2023-04-24T02:38:26;23.85;;;7.30;;
71475;SDS011;59286;59.274;17.974;2023-04-24T02:40:52;27.40;;;7.22;;
71475;SDS011;59286;59.274;17.974;2023-04-24T02:43:17;23.80;;;6.82;;
71475;SDS011;59286;59.274;17.974;2023-04-24T02:45:42;30.20;;;6.20;;
71475;SDS011;59286;59.274;17.974;2023-04-24T02:48:08;56.13;;;9.27;;
71475;SDS011;59286;59.274;17.974;2023-04-24T02:50:33;31.17;;;8.00;;
71475;SDS011;59286;59.274;17.974;2023-04-24T02:52:59;18.20;;;6.07;;
71475;SDS011;59286;59.274;17.974;2023-04-24T02:55:24;28.30;;;6.72;;
71475;SDS011;59286;59.274;17.974;2023-04-24T02:57:50;24.13;;;6.28;;
71475;SDS011;59286;59.274;17.974;2023-04-24T03:00:15;26.05;;;7.43;;
71475;SDS011;59286;59.274;17.974;2023-04-24T03:02:41;27.17;;;7.50;;
71475;SDS011;59286;59.274;17.974;2023-04-24T03:05:07;28.10;;;7.03;;
71475;SDS011;59286;59.274;17.974;2023-04-24T03:07:32;23.05;;;7.05;;
71475;SDS011;59286;59.274;17.974;2023-04-24T03:09:58;41.67;;;8.80;;
71475;SDS011;59286;59.274;17.974;2023-04-24T03:12:24;29.15;;;7.75;;
71475;SDS011;59286;59.274;17.974;2023-04-24T03:14:49;26.17;;;7.68;;
71475;SDS011;59286;59.274;17.974;2023-04-24T03:17:15;33.58;;;8.07;;
71475;SDS011;59286;59.274;17.974;2023-04-24T03:19:40;29.88;;;8.02;;
71475;SDS011;59286;59.274;17.974;2023-04-24T03:22:06;28.85;;;7.93;;
71475;SDS011;59286;59.274;17.974;2023-04-24T03:24:31;27.25;;;7.82;;
71475;SDS011;59286;59.274;17.974;2023-04-24T03:26:57;34.05;;;7.85;;
71475;SDS011;59286;59.274;17.974;2023-04-24T03:29:22;23.67;;;7.05;;
71475;SDS011;59286;59.274;17.974;2023-04-24T03:31:48;22.60;;;7.18;;
71475;SDS011;59286;59.274;17.974;2023-04-24T03:34:13;28.50;;;7.38;;
71475;SDS011;59286;59.274;17.974;2023-04-24T03:36:39;28.08;;;8.60;;
71475;SDS011;59286;59.274;17.974;2023-04-24T03:39:04;21.15;;;5.93;;
71475;SDS011;59286;59.274;17.974;2023-04-24T03:41:30;16.90;;;5.03;;
71475;SDS011;59286;59.274;17.974;2023-04-24T03:43:55;24.60;;;5.70;;
71475;SDS011;59286;59.274;17.974;2023-04-24T03:46:21;31.17;;;7.43;;
71475;SDS011;59286;59.274;17.974;2023-04-24T03:48:46;18.15;;;6.00;;
71475;SDS011;59286;59.274;17.974;2023-04-24T03:51:12;22.05;;;7.03;;
71475;SDS011;59286;59.274;17.974;2023-04-24T03:53:37;34.90;;;6.35;;
71475;SDS011;59286;59.274;17.974;2023-04-24T03:56:02;20.05;;;6.50;;
71475;SDS011;59286;59.274;17.974;2023-04-24T03:58:28;16.65;;;5.75;;
71475;SDS011;59286;59.274;17.974;2023-04-24T04:00:53;19.15;;;5.95;;
71475;SDS011;59286;59.274;17.974;2023-04-24T04:03:18;30.23;;;7.80;;
71475;SDS011;59286;59.274;17.974;2023-04-24T04:05:44;21.10;;;5.72;;
71475;SDS011;59286;59.274;17.974;2023-04-24T04:08:10;25.52;;;7.43;;
71475;SDS011;59286;59.274;17.974;2023-04-24T04:10:35;22.02;;;7.35;;
71475;SDS011;59286;59.274;17.974;2023-04-24T04:13:00;20.95;;;6.43;;
71475;SDS011;59286;59.274;17.974;2023-04-24T04:15:26;22.67;;;6.43;;
71475;SDS011;59286;59.274;17.974;2023-04-24T04:17:51;30.50;;;6.93;;
71475;SDS011;59286;59.274;17.974;2023-04-24T04:20:17;17.90;;;5.72;;
71475;SDS011;59286;59.274;17.974;2023-04-24T04:22:42;26.92;;;7.35;;
71475;SDS011;59286;59.274;17.974;2023-04-24T04:25:07;22.35;;;7.00;;
71475;SDS011;59286;59.274;17.974;2023-04-24T04:27:33;29.70;;;7.72;;
71475;SDS011;59286;59.274;17.974;2023-04-24T04:29:59;22.38;;;6.88;;
71475;SDS011;59286;59.274;17.974;2023-04-24T04:32:32;23.80;;;7.10;;
71475;SDS011;59286;59.274;17.974;2023-04-24T04:34:58;34.10;;;8.77;;
71475;SDS011;59286;59.274;17.974;2023-04-24T04:37:34;30.67;;;8.15;;
71475;SDS011;59286;59.274;17.974;2023-04-24T04:39:59;22.25;;;6.93;;
71475;SDS011;59286;59.274;17.974;2023-04-24T04:42:25;34.90;;;8.63;;
71475;SDS011;59286;59.274;17.974;2023-04-24T04:44:51;27.95;;;8.70;;
71475;SDS011;59286;59.274;17.974;2023-04-24T04:47:17;22.23;;;8.38;;
71475;SDS011;59286;59.274;17.974;2023-04-24T04:49:43;22.88;;;8.05;;
71475;SDS011;59286;59.274;17.974;2023-04-24T04:52:09;26.95;;;8.32;;
71475;SDS011;59286;59.274;17.974;2023-04-24T04:54:34;23.70;;;7.80;;
71475;SDS011;59286;59.274;17.974;2023-04-24T04:57:00;27.67;;;9.10;;
71475;SDS011;59286;59.274;17.974;2023-04-24T04:59:26;23.45;;;7.97;;
71475;SDS011;59286;59.274;17.974;2023-04-24T05:01:51;28.48;;;9.00;;
71475;SDS011;59286;59.274;17.974;2023-04-24T05:04:17;23.50;;;8.80;;
71475;SDS011;59286;59.274;17.974;2023-04-24T05:06:42;25.15;;;8.63;;
71475;SDS011;59286;59.274;17.974;2023-04-24T05:09:07;25.52;;;9.43;;
71475;SDS011;59286;59.274;17.974;2023-04-24T05:11:33;22.70;;;8.10;;
71475;SDS011;59286;59.274;17.974;2023-04-24T05:13:58;22.63;;;8.15;;
71475;SDS011;59286;59.274;17.974;2023-04-24T05:16:23;23.17;;;7.80;;
71475;SDS011;59286;59.274;17.974;2023-04-24T05:18:49;18.85;;;8.05;;
71475;SDS011;59286;59.274;17.974;2023-04-24T05:21:14;21.00;;;8.00;;
71475;SDS011;59286;59.274;17.974;2023-04-24T05:23:40;19.02;;;7.60;;
71475;SDS011;59286;59.274;17.974;2023-04-24T05:26:05;15.70;;;7.40;;
71475;SDS011;59286;59.274;17.974;2023-04-24T05:28:30;22.52;;;8.65;;
71475;SDS011;59286;59.274;17.974;2023-04-24T05:30:56;26.80;;;8.80;;
71475;SDS011;59286;59.274;17.974;2023-04-24T05:33:21;25.13;;;8.50;;
71475;SDS011;59286;59.274;17.974;2023-04-24T05:35:47;24.92;;;9.38;;
71475;SDS011;59286;59.274;17.974;2023-04-24T05:38:13;22.63;;;9.02;;
71475;SDS011;59286;59.274;17.974;2023-04-24T05:40:39;22.58;;;8.20;;
71475;SDS011;59286;59.274;17.974;2023-04-24T05:43:05;19.00;;;7.90;;
71475;SDS011;59286;59.274;17.974;2023-04-24T05:45:30;18.33;;;7.63;;
71475;SDS011;59286;59.274;17.974;2023-04-24T05:47:56;17.85;;;7.70;;
71475;SDS011;59286;59.274;17.974;2023-04-24T05:50:21;19.02;;;7.80;;
71475;SDS011;59286;59.274;17.974;2023-04-24T05:52:47;19.48;;;7.78;;
71475;SDS011;59286;59.274;17.974;2023-04-24T05:55:12;25.45;;;8.63;;
71475;SDS011;59286;59.274;17.974;2023-04-24T05:57:38;17.23;;;8.02;;
71475;SDS011;59286;59.274;17.974;2023-04-24T06:00:04;21.08;;;7.40;;
71475;SDS011;59286;59.274;17.974;2023-04-24T06:02:30;20.88;;;8.50;;
71475;SDS011;59286;59.274;17.974;2023-04-24T06:04:57;16.75;;;7.55;;
71475;SDS011;59286;59.274;17.974;2023-04-24T06:07:25;29.70;;;9.90;;
71475;SDS011;59286;59.274;17.974;2023-04-24T06:09:54;23.13;;;8.82;;
71475;SDS011;59286;59.274;17.974;2023-04-24T06:12:19;17.85;;;6.82;;
71475;SDS011;59286;59.274;17.974;2023-04-24T06:14:45;17.92;;;7.55;;
71475;SDS011;59286;59.274;17.974;2023-04-24T06:17:10;18.23;;;7.18;;
71475;SDS011;59286;59.274;17.974;2023-04-24T06:19:35;14.88;;;6.65;;
71475;SDS011;59286;59.274;17.974;2023-04-24T06:22:01;15.55;;;6.65;;
71475;SDS011;59286;59.274;17.974;2023-04-24T06:24:29;11.25;;;5.75;;
71475;SDS011;59286;59.274;17.974;2023-04-24T06:26:55;13.10;;;6.13;;
71475;SDS011;59286;59.274;17.974;2023-04-24T06:29:22;10.13;;;5.20;;
71475;SDS011;59286;59.274;17.974;2023-04-24T06:31:47;8.85;;;5.00;;
71475;SDS011;59286;59.274;17.974;2023-04-24T06:34:12;11.20;;;4.68;;
71475;SDS011;59286;59.274;17.974;2023-04-24T06:36:38;12.02;;;5.60;;
71475;SDS011;59286;59.274;17.974;2023-04-24T06:39:03;13.07;;;4.90;;
71475;SDS011;59286;59.274;17.974;2023-04-24T06:41:29;9.90;;;4.70;;
71475;SDS011;59286;59.274;17.974;2023-04-24T06:43:54;11.40;;;5.63;;
71475;SDS011;59286;59.274;17.974;2023-04-24T06:46:20;10.40;;;4.78;;
71475;SDS011;59286;59.274;17.974;2023-04-24T06:48:48;11.35;;;5.40;;
71475;SDS011;59286;59.274;17.974;2023-04-24T06:51:14;11.20;;;5.28;;
71475;SDS011;59286;59.274;17.974;2023-04-24T06:53:40;11.63;;;4.72;;
71475;SDS011;59286;59.274;17.974;2023-04-24T06:56:05;8.35;;;3.85;;
71475;SDS011;59286;59.274;17.974;2023-04-24T06:58:30;8.57;;;3.88;;
71475;SDS011;59286;59.274;17.974;2023-04-24T07:00:56;7.50;;;3.75;;
71475;SDS011;59286;59.274;17.974;2023-04-24T07:03:21;9.15;;;3.97;;
71475;SDS011;59286;59.274;17.974;2023-04-24T07:05:47;9.35;;;3.75;;
71475;SDS011;59286;59.274;17.974;2023-04-24T07:08:14;11.77;;;3.67;;
71475;SDS011;59286;59.274;17.974;2023-04-24T07:10:42;9.07;;;4.10;;
71475;SDS011;59286;59.274;17.974;2023-04-24T07:13:07;9.10;;;4.13;;
71475;SDS011;59286;59.274;17.974;2023-04-24T07:15:33;10.63;;;4.28;;
71475;SDS011;59286;59.274;17.974;2023-04-24T07:17:59;8.70;;;4.30;;
71475;SDS011;59286;59.274;17.974;2023-04-24T07:20:24;9.40;;;4.60;;
71475;SDS011;59286;59.274;17.974;2023-04-24T07:22:51;8.20;;;3.90;;
71475;SDS011;59286;59.274;17.974;2023-04-24T07:25:18;8.40;;;4.10;;
71475;SDS011;59286;59.274;17.974;2023-04-24T07:27:44;8.10;;;3.97;;
71475;SDS011;59286;59.274;17.974;2023-04-24T07:30:10;10.25;;;4.93;;
71475;SDS011;59286;59.274;17.974;2023-04-24T07:32:36;12.75;;;4.82;;
71475;SDS011;59286;59.274;17.974;2023-04-24T07:35:01;10.48;;;4.07;;
71475;SDS011;59286;59.274;17.974;2023-04-24T07:37:26;8.48;;;4.30;;
71475;SDS011;59286;59.274;17.974;2023-04-24T07:39:53;10.98;;;4.85;;
71475;SDS011;59286;59.274;17.974;2023-04-24T07:42:18;7.70;;;4.57;;
71475;SDS011;59286;59.274;17.974;2023-04-24T07:44:43;8.52;;;3.95;;
71475;SDS011;59286;59.274;17.974;2023-04-24T07:47:09;8.23;;;4.38;;
71475;SDS011;59286;59.274;17.974;2023-04-24T07:49:34;8.75;;;4.82;;
71475;SDS011;59286;59.274;17.974;2023-04-24T07:52:00;10.50;;;4.65;;
71475;SDS011;59286;59.274;17.974;2023-04-24T07:54:27;7.57;;;4.30;;
71475;SDS011;59286;59.274;17.974;2023-04-24T07:56:53;6.22;;;4.03;;
71475;SDS011;59286;59.274;17.974;2023-04-24T07:59:18;5.93;;;3.50;;
71475;SDS011;59286;59.274;17.974;2023-04-24T08:01:44;7.90;;;3.60;;
71475;SDS011;59286;59.274;17.974;2023-04-24T08:04:09;7.28;;;3.65;;
71475;SDS011;59286;59.274;17.974;2023-04-24T08:06:34;6.88;;;3.30;;
71475;SDS011;59286;59.274;17.974;2023-04-24T08:09:00;5.32;;;3.13;;
71475;SDS011;59286;59.274;17.974;2023-04-24T08:11:25;3.83;;;2.55;;
71475;SDS011;59286;59.274;17.974;2023-04-24T08:13:51;5.13;;;2.75;;
71475;SDS011;59286;59.274;17.974;2023-04-24T08:16:16;6.90;;;3.28;;
71475;SDS011;59286;59.274;17.974;2023-04-24T08:18:42;5.60;;;2.05;;
71475;SDS011;59286;59.274;17.974;2023-04-24T08:21:07;5.18;;;2.63;;
71475;SDS011;59286;59.274;17.974;2023-04-24T08:23:32;5.80;;;2.88;;
71475;SDS011;59286;59.274;17.974;2023-04-24T08:25:58;5.53;;;3.10;;
71475;SDS011;59286;59.274;17.974;2023-04-24T08:28:23;8.02;;;3.10;;
71475;SDS011;59286;59.274;17.974;2023-04-24T08:30:49;5.15;;;2.90;;
71475;SDS011;59286;59.274;17.974;2023-04-24T08:33:19;7.00;;;3.22;;
71475;SDS011;59286;59.274;17.974;2023-04-24T08:35:45;7.60;;;2.85;;
71475;SDS011;59286;59.274;17.974;2023-04-24T08:38:10;5.22;;;2.50;;
71475;SDS011;59286;59.274;17.974;2023-04-24T08:40:36;5.47;;;3.00;;
71475;SDS011;59286;59.274;17.974;2023-04-24T08:43:02;7.05;;;2.92;;
71475;SDS011;59286;59.274;17.974;2023-04-24T08:45:28;6.85;;;2.67;;
71475;SDS011;59286;59.274;17.974;2023-04-24T08:47:54;8.23;;;3.17;;
71475;SDS011;59286;59.274;17.974;2023-04-24T08:50:20;7.43;;;3.63;;
71475;SDS011;59286;59.274;17.974;2023-04-24T08:52:47;6.53;;;3.20;;
71475;SDS011;59286;59.274;17.974;2023-04-24T08:55:15;5.40;;;3.25;;
71475;SDS011;59286;59.274;17.974;2023-04-24T08:57:43;5.45;;;3.13;;
71475;SDS011;59286;59.274;17.974;2023-04-24T09:00:10;4.68;;;3.38;;
71475;SDS011;59286;59.274;17.974;2023-04-24T09:02:36;3.92;;;3.15;;
71475;SDS011;59286;59.274;17.974;2023-04-24T09:05:06;4.18;;;3.17;;
71475;SDS011;59286;59.274;17.974;2023-04-24T09:07:33;5.35;;;3.03;;
71475;SDS011;59286;59.274;17.974;2023-04-24T09:10:01;4.68;;;3.10;;
71475;SDS011;59286;59.274;17.974;2023-04-24T09:12:27;9.82;;;3.53;;
71475;SDS011;59286;59.274;17.974;2023-04-24T09:14:52;4.55;;;3.38;;
71475;SDS011;59286;59.274;17.974;2023-04-24T09:17:18;4.93;;;3.58;;
71475;SDS011;59286;59.274;17.974;2023-04-24T09:19:43;5.43;;;3.60;;
71475;SDS011;59286;59.274;17.974;2023-04-24T09:22:09;6.93;;;3.30;;
71475;SDS011;59286;59.274;17.974;2023-04-24T09:24:36;3.30;;;2.92;;
71475;SDS011;59286;59.274;17.974;2023-04-24T09:27:01;6.45;;;3.10;;
71475;SDS011;59286;59.274;17.974;2023-04-24T09:29:27;4.45;;;3.13;;
71475;SDS011;59286;59.274;17.974;2023-04-24T09:31:53;10.05;;;3.20;;
71475;SDS011;59286;59.274;17.974;2023-04-24T09:34:22;5.50;;;2.53;;
71475;SDS011;59286;59.274;17.974;2023-04-24T09:36:49;3.08;;;2.50;;
71475;SDS011;59286;59.274;17.974;2023-04-24T09:39:15;7.40;;;2.70;;
71475;SDS011;59286;59.274;17.974;2023-04-24T09:41:45;8.32;;;2.97;;
71475;SDS011;59286;59.274;17.974;2023-04-24T09:44:15;3.58;;;2.70;;
71475;SDS011;59286;59.274;17.974;2023-04-24T09:46:42;2.92;;;2.40;;
71475;SDS011;59286;59.274;17.974;2023-04-24T09:49:15;4.82;;;2.90;;
71475;SDS011;59286;59.274;17.974;2023-04-24T09:51:42;6.07;;;3.03;;
71475;SDS011;59286;59.274;17.974;2023-04-24T09:54:13;4.18;;;2.70;;
71475;SDS011;59286;59.274;17.974;2023-04-24T09:56:44;9.63;;;3.38;;
71475;SDS011;59286;59.274;17.974;2023-04-24T09:59:10;4.40;;;2.67;;
71475;SDS011;59286;59.274;17.974;2023-04-24T10:01:37;5.65;;;3.30;;
71475;SDS011;59286;59.274;17.974;2023-04-24T10:04:03;5.15;;;3.33;;
71475;SDS011;59286;59.274;17.974;2023-04-24T10:06:35;6.03;;;3.03;;
71475;SDS011;59286;59.274;17.974;2023-04-24T10:09:01;5.00;;;2.95;;
71475;SDS011;59286;59.274;17.974;2023-04-24T10:11:28;4.85;;;2.88;;
71475;SDS011;59286;59.274;17.974;2023-04-24T10:13:55;7.70;;;2.85;;
71475;SDS011;59286;59.274;17.974;2023-04-24T10:16:22;4.10;;;2.90;;
71475;SDS011;59286;59.274;17.974;2023-04-24T10:18:48;3.90;;;2.30;;
71475;SDS011;59286;59.274;17.974;2023-04-24T10:21:14;3.47;;;2.58;;
71475;SDS011;59286;59.274;17.974;2023-04-24T10:23:41;3.58;;;1.75;;
71475;SDS011;59286;59.274;17.974;2023-04-24T10:26:08;3.30;;;1.60;;
71475;SDS011;59286;59.274;17.974;2023-04-24T10:28:36;2.72;;;1.70;;
71475;SDS011;59286;59.274;17.974;2023-04-24T10:31:01;4.00;;;1.83;;
71475;SDS011;59286;59.274;17.974;2023-04-24T10:33:27;5.05;;;2.00;;
71475;SDS011;59286;59.274;17.974;2023-04-24T10:35:54;3.88;;;1.60;;
71475;SDS011;59286;59.274;17.974;2023-04-24T10:38:24;5.05;;;1.83;;
71475;SDS011;59286;59.274;17.974;2023-04-24T10:40:57;5.22;;;1.65;;
71475;SDS011;59286;59.274;17.974;2023-04-24T10:43:45;4.75;;;1.70;;
71475;SDS011;59286;59.274;17.974;2023-04-24T10:46:10;2.90;;;1.77;;
71475;SDS011;59286;59.274;17.974;2023-04-24T10:48:44;2.60;;;1.58;;
71475;SDS011;59286;59.274;17.974;2023-04-24T10:51:17;2.70;;;1.90;;
71475;SDS011;59286;59.274;17.974;2023-04-24T10:53:42;3.22;;;2.22;;
71475;SDS011;59286;59.274;17.974;2023-04-24T10:56:08;3.75;;;2.40;;
71475;SDS011;59286;59.274;17.974;2023-04-24T10:58:40;6.50;;;2.33;;
71475;SDS011;59286;59.274;17.974;2023-04-24T11:01:09;3.88;;;2.33;;
71475;SDS011;59286;59.274;17.974;2023-04-24T11:03:50;3.92;;;2.10;;
71475;SDS011;59286;59.274;17.974;2023-04-24T11:06:19;4.35;;;1.85;;
71475;SDS011;59286;59.274;17.974;2023-04-24T11:09:06;3.25;;;2.13;;
71475;SDS011;59286;59.274;17.974;2023-04-24T11:11:34;4.95;;;1.80;;
71475;SDS011;59286;59.274;17.974;2023-04-24T11:14:01;3.53;;;1.85;;
71475;SDS011;59286;59.274;17.974;2023-04-24T11:19:03;4.57;;;2.15;;
71475;SDS011;59286;59.274;17.974;2023-04-24T11:21:31;2.72;;;2.40;;
71475;SDS011;59286;59.274;17.974;2023-04-24T11:23:57;11.65;;;2.30;;
71475;SDS011;59286;59.274;17.974;2023-04-24T11:26:23;2.80;;;1.95;;
71475;SDS011;59286;59.274;17.974;2023-04-24T11:28:55;4.20;;;2.30;;
71475;SDS011;59286;59.274;17.974;2023-04-24T11:31:39;7.05;;;2.25;;
71475;SDS011;59286;59.274;17.974;2023-04-24T11:34:13;3.70;;;2.20;;
71475;SDS011;59286;59.274;17.974;2023-04-24T11:36:40;5.63;;;2.25;;
71475;SDS011;59286;59.274;17.974;2023-04-24T11:39:08;4.85;;;2.10;;
71475;SDS011;59286;59.274;17.974;2023-04-24T11:41:34;3.22;;;2.00;;
71475;SDS011;59286;59.274;17.974;2023-04-24T11:44:00;2.50;;;2.03;;
71475;SDS011;59286;59.274;17.974;2023-04-24T11:46:27;5.28;;;2.30;;
71475;SDS011;59286;59.274;17.974;2023-04-24T11:48:54;3.05;;;2.10;;
71475;SDS011;59286;59.274;17.974;2023-04-24T11:51:21;3.15;;;2.03;;
71475;SDS011;59286;59.274;17.974;2023-04-24T11:53:47;4.25;;;2.00;;
71475;SDS011;59286;59.274;17.974;2023-04-24T11:56:16;6.22;;;2.50;;
71475;SDS011;59286;59.274;17.974;2023-04-24T11:58:44;6.75;;;2.30;;
71475;SDS011;59286;59.274;17.974;2023-04-24T12:01:09;10.07;;;3.03;;
71475;SDS011;59286;59.274;17.974;2023-04-24T12:03:35;6.90;;;2.70;;
71475;SDS011;59286;59.274;17.974;2023-04-24T12:06:07;7.45;;;3.05;;
71475;SDS011;59286;59.274;17.974;2023-04-24T12:08:36;6.47;;;2.83;;
71475;SDS011;59286;59.274;17.974;2023-04-24T12:11:02;5.72;;;3.05;;
71475;SDS011;59286;59.274;17.974;2023-04-24T12:13:29;4.57;;;3.33;;
71475;SDS011;59286;59.274;17.974;2023-04-24T12:15:58;8.35;;;3.47;;
71475;SDS011;59286;59.274;17.974;2023-04-24T12:18:25;6.03;;;3.05;;
71475;SDS011;59286;59.274;17.974;2023-04-24T12:20:50;9.00;;;3.50;;
71475;SDS011;59286;59.274;17.974;2023-04-24T12:23:16;3.90;;;3.50;;
71475;SDS011;59286;59.274;17.974;2023-04-24T12:25:42;6.72;;;3.20;;
71475;SDS011;59286;59.274;17.974;2023-04-24T12:28:09;7.38;;;3.60;;
71475;SDS011;59286;59.274;17.974;2023-04-24T12:30:48;8.80;;;3.72;;
71475;SDS011;59286;59.274;17.974;2023-04-24T12:33:19;8.68;;;3.65;;
71475;SDS011;59286;59.274;17.974;2023-04-24T12:35:47;8.50;;;4.03;;
71475;SDS011;59286;59.274;17.974;2023-04-24T12:38:13;8.57;;;4.65;;
71475;SDS011;59286;59.274;17.974;2023-04-24T12:40:41;9.70;;;3.83;;
71475;SDS011;59286;59.274;17.974;2023-04-24T12:45:45;8.50;;;4.40;;
71475;SDS011;59286;59.274;17.974;2023-04-24T12:48:12;4.65;;;3.90;;
71475;SDS011;59286;59.274;17.974;2023-04-24T12:50:41;6.18;;;4.30;;
71475;SDS011;59286;59.274;17.974;2023-04-24T12:53:07;6.57;;;4.10;;
71475;SDS011;59286;59.274;17.974;2023-04-24T12:55:33;6.35;;;4.32;;
71475;SDS011;59286;59.274;17.974;2023-04-24T12:57:59;7.35;;;4.07;;
71475;SDS011;59286;59.274;17.974;2023-04-24T13:00:24;5.80;;;4.07;;
71475;SDS011;59286;59.274;17.974;2023-04-24T13:02:49;11.18;;;4.03;;
71475;SDS011;59286;59.274;17.974;2023-04-24T13:05:15;6.38;;;4.28;;
71475;SDS011;59286;59.274;17.974;2023-04-24T13:07:40;6.28;;;3.70;;
71475;SDS011;59286;59.274;17.974;2023-04-24T13:10:06;9.80;;;4.07;;
71475;SDS011;59286;59.274;17.974;2023-04-24T13:12:32;6.13;;;3.60;;
71475;SDS011;59286;59.274;17.974;2023-04-24T13:14:57;5.97;;;3.67;;
71475;SDS011;59286;59.274;17.974;2023-04-24T13:17:23;8.23;;;4.07;;
71475;SDS011;59286;59.274;17.974;2023-04-24T13:19:49;6.28;;;3.80;;
71475;SDS011;59286;59.274;17.974;2023-04-24T13:22:16;7.97;;;4.10;;
71475;SDS011;59286;59.274;17.974;2023-04-24T13:24:43;7.97;;;4.13;;
71475;SDS011;59286;59.274;17.974;2023-04-24T13:27:09;5.75;;;3.55;;
71475;SDS011;59286;59.274;17.974;2023-04-24T13:29:35;5.53;;;4.03;;
71475;SDS011;59286;59.274;17.974;2023-04-24T13:32:00;6.60;;;3.85;;
71475;SDS011;59286;59.274;17.974;2023-04-24T13:34:26;5.45;;;3.88;;
71475;SDS011;59286;59.274;17.974;2023-04-24T13:36:53;5.68;;;4.00;;
71475;SDS011;59286;59.274;17.974;2023-04-24T13:39:21;5.55;;;3.85;;
71475;SDS011;59286;59.274;17.974;2023-04-24T13:41:48;7.63;;;4.05;;
71475;SDS011;59286;59.274;17.974;2023-04-24T13:44:13;9.57;;;3.88;;
71475;SDS011;59286;59.274;17.974;2023-04-24T13:46:40;7.88;;;3.67;;
71475;SDS011;59286;59.274;17.974;2023-04-24T13:49:05;10.80;;;4.00;;
71475;SDS011;59286;59.274;17.974;2023-04-24T13:51:31;7.68;;;3.90;;
71475;SDS011;59286;59.274;17.974;2023-04-24T13:53:57;7.35;;;4.07;;
71475;SDS011;59286;59.274;17.974;2023-04-24T13:56:22;8.20;;;3.50;;
71475;SDS011;59286;59.274;17.974;2023-04-24T13:58:48;8.95;;;3.55;;
71475;SDS011;59286;59.274;17.974;2023-04-24T14:01:13;5.22;;;2.85;;
71475;SDS011;59286;59.274;17.974;2023-04-24T14:03:40;6.30;;;3.00;;
71475;SDS011;59286;59.274;17.974;2023-04-24T14:06:06;7.15;;;3.15;;
71475;SDS011;59286;59.274;17.974;2023-04-24T14:08:31;5.95;;;3.08;;
71475;SDS011;59286;59.274;17.974;2023-04-24T14:10:57;7.60;;;3.08;;
71475;SDS011;59286;59.274;17.974;2023-04-24T14:13:22;8.15;;;3.50;;
71475;SDS011;59286;59.274;17.974;2023-04-24T14:15:48;5.72;;;3.38;;
71475;SDS011;59286;59.274;17.974;2023-04-24T14:18:13;4.43;;;3.10;;
71475;SDS011;59286;59.274;17.974;2023-04-24T14:20:39;6.68;;;3.22;;
71475;SDS011;59286;59.274;17.974;2023-04-24T14:23:05;6.45;;;3.22;;
71475;SDS011;59286;59.274;17.974;2023-04-24T14:25:30;9.50;;;3.53;;
71475;SDS011;59286;59.274;17.974;2023-04-24T14:27:55;8.90;;;3.40;;